Time;durP1;ratioP1;P1;durP2;ratioP2;P2;SDS_P1;SDS_P2;PMS_P1;PMS_P2;Temp;Humidity;BMP_temperature;BMP_pressure;BME280_temperature;BME280_humidity;BME280_pressure;Samples;Min_cycle;Max_cycle;Signal;HPM_P1;HPM_P2
2022/03/29 00:02:12;;;;;;;9.35;7.00;;;4.30;99.90;;;;;;5013933;28;20539;-84
2022/03/29 00:04:38;;;;;;;7.75;6.63;;;4.10;99.90;;;;;;5013378;28;20056;-84
2022/03/29 00:07:05;;;;;;;8.85;7.20;;;4.10;99.90;;;;;;5015607;28;20053;-84
2022/03/29 00:09:32;;;;;;;9.52;7.25;;;4.10;99.90;;;;;;5016025;28;20128;-85
2022/03/29 00:11:59;;;;;;;10.25;6.82;;;4.10;99.90;;;;;;5015691;28;20058;-84
2022/03/29 00:14:26;;;;;;;10.07;6.88;;;4.10;99.90;;;;;;5013575;28;20132;-84
2022/03/29 00:16:53;;;;;;;8.05;6.80;;;4.10;99.90;;;;;;5013748;28;20060;-84
2022/03/29 00:19:20;;;;;;;12.77;7.90;;;4.10;99.90;;;;;;5013657;28;20461;-84
2022/03/29 00:21:46;;;;;;;11.07;7.40;;;4.20;99.90;;;;;;5014266;28;20050;-84
2022/03/29 00:24:13;;;;;;;11.10;7.32;;;4.20;99.90;;;;;;5015386;28;20077;-85
2022/03/29 00:26:41;;;;;;;11.30;7.25;;;4.20;99.90;;;;;;5015242;28;20148;-84
2022/03/29 00:29:08;;;;;;;11.45;7.25;;;4.20;99.90;;;;;;5013912;28;20092;-84
2022/03/29 00:31:35;;;;;;;10.50;7.28;;;4.10;99.90;;;;;;5014859;28;20506;-85
2022/03/29 00:34:02;;;;;;;8.65;6.70;;;4.10;99.90;;;;;;5014015;28;20050;-84
2022/03/29 00:36:28;;;;;;;8.68;7.03;;;4.10;99.90;;;;;;5013779;28;20564;-84
2022/03/29 00:38:55;;;;;;;16.60;7.70;;;4.10;99.90;;;;;;5013795;28;20141;-84
2022/03/29 00:41:22;;;;;;;9.77;7.13;;;4.10;99.90;;;;;;5014639;28;20077;-84
2022/03/29 00:43:49;;;;;;;13.55;7.32;;;4.10;99.90;;;;;;5013210;28;20609;-84
2022/03/29 00:46:16;;;;;;;8.80;7.07;;;4.10;99.90;;;;;;5013782;28;20054;-84
2022/03/29 00:48:43;;;;;;;12.77;7.18;;;4.10;99.90;;;;;;5013574;28;20137;-85
2022/03/29 00:51:10;;;;;;;10.27;6.90;;;4.10;99.90;;;;;;5013608;28;20046;-85
2022/03/29 00:53:38;;;;;;;14.77;7.07;;;4.10;99.90;;;;;;5014677;28;20088;-83
2022/03/29 00:56:04;;;;;;;10.05;7.43;;;4.10;99.90;;;;;;5014647;28;20498;-84
2022/03/29 00:58:34;;;;;;;11.57;7.60;;;4.10;99.90;;;;;;5013227;28;20057;-84
2022/03/29 01:01:02;;;;;;;10.90;7.20;;;4.20;99.90;;;;;;5013146;28;20077;-84
2022/03/29 01:03:33;;;;;;;11.93;7.10;;;4.10;99.90;;;;;;5014602;28;20449;-84
2022/03/29 01:06:00;;;;;;;12.98;7.63;;;4.10;99.90;;;;;;5013853;28;20383;-85
2022/03/29 01:08:27;;;;;;;10.35;7.28;;;4.00;99.90;;;;;;5014271;28;20100;-84
2022/03/29 01:10:54;;;;;;;9.57;6.82;;;4.00;99.90;;;;;;5012928;28;20561;-85
2022/03/29 01:13:21;;;;;;;9.23;7.25;;;3.90;99.90;;;;;;5014208;28;20132;-84
2022/03/29 01:15:49;;;;;;;10.18;7.30;;;4.00;99.90;;;;;;5014575;28;20049;-84
2022/03/29 01:18:18;;;;;;;13.77;7.97;;;4.00;99.90;;;;;;5012070;28;20044;-84
2022/03/29 01:20:48;;;;;;;10.95;7.32;;;4.00;99.90;;;;;;5012675;28;20053;-84
2022/03/29 01:23:15;;;;;;;14.32;7.80;;;3.90;99.90;;;;;;5014007;28;20046;-84
2022/03/29 01:25:43;;;;;;;11.60;7.90;;;3.70;99.90;;;;;;5014036;28;20169;-85
2022/03/29 01:28:11;;;;;;;11.50;7.47;;;3.70;99.90;;;;;;5014440;28;20113;-83
2022/03/29 01:30:38;;;;;;;12.48;8.05;;;3.60;99.90;;;;;;5013809;28;20078;-84
2022/03/29 01:33:07;;;;;;;10.68;7.50;;;3.70;99.90;;;;;;5012884;28;20046;-84
2022/03/29 01:35:34;;;;;;;11.40;7.85;;;3.70;99.90;;;;;;5013602;28;20142;-84
2022/03/29 01:38:00;;;;;;;11.60;7.78;;;3.50;99.90;;;;;;5012447;28;20077;-84
2022/03/29 01:40:28;;;;;;;11.98;7.80;;;3.50;99.90;;;;;;5013767;28;20096;-84
2022/03/29 01:42:59;;;;;;;10.20;7.90;;;3.60;99.90;;;;;;5013683;28;20413;-84
2022/03/29 01:45:31;;;;;;;10.65;7.80;;;3.50;99.90;;;;;;5013379;28;20096;-84
2022/03/29 01:47:59;;;;;;;10.93;7.32;;;3.30;99.90;;;;;;5012460;28;20132;-84
2022/03/29 01:50:26;;;;;;;12.30;8.05;;;3.40;99.90;;;;;;5013308;28;20050;-84
2022/03/29 01:52:53;;;;;;;12.07;8.38;;;3.20;99.90;;;;;;5013479;28;20593;-84
2022/03/29 01:55:21;;;;;;;10.93;7.95;;;3.20;99.90;;;;;;5012514;28;20084;-84
2022/03/29 01:57:49;;;;;;;11.70;8.43;;;3.20;99.90;;;;;;5012432;28;20050;-84
2022/03/29 02:00:33;;;;;;;12.13;8.13;;;3.10;99.90;;;;;;5012328;28;20082;-84
2022/03/29 02:03:03;;;;;;;11.90;8.23;;;3.00;99.90;;;;;;5012007;28;20053;-84
2022/03/29 02:05:32;;;;;;;16.52;8.50;;;3.00;99.90;;;;;;5012180;28;20064;-84
2022/03/29 02:08:00;;;;;;;15.55;8.60;;;3.00;99.90;;;;;;5012168;28;20088;-84
2022/03/29 02:10:27;;;;;;;11.50;8.95;;;2.80;99.90;;;;;;5011660;28;20111;-84
2022/03/29 02:12:55;;;;;;;15.10;8.93;;;2.80;99.90;;;;;;5011152;28;20133;-84
2022/03/29 02:15:22;;;;;;;16.75;10.27;;;3.00;99.90;;;;;;5011809;28;20050;-84
2022/03/29 02:17:49;;;;;;;14.65;9.02;;;3.10;99.90;;;;;;5013170;28;20149;-84
2022/03/29 02:20:16;;;;;;;12.27;8.95;;;3.20;99.90;;;;;;5011743;28;20089;-84
2022/03/29 02:22:44;;;;;;;13.15;8.45;;;3.30;99.90;;;;;;5011780;28;20056;-84
2022/03/29 02:25:11;;;;;;;12.30;9.40;;;3.20;99.90;;;;;;5013135;28;20057;-84
2022/03/29 02:27:41;;;;;;;13.77;8.63;;;3.30;99.90;;;;;;5011778;28;20080;-84
2022/03/29 02:30:11;;;;;;;15.32;8.23;;;3.30;99.90;;;;;;5011438;28;20502;-83
2022/03/29 02:32:38;;;;;;;14.63;8.85;;;3.30;99.90;;;;;;5012880;28;20319;-83
2022/03/29 02:35:06;;;;;;;16.95;8.35;;;3.30;99.90;;;;;;5012951;28;20076;-84
2022/03/29 02:37:32;;;;;;;13.23;8.70;;;3.30;99.90;;;;;;5012817;28;20050;-84
2022/03/29 02:40:00;;;;;;;13.45;8.45;;;3.30;99.90;;;;;;5013139;28;20517;-84
2022/03/29 02:42:26;;;;;;;13.85;8.80;;;3.30;99.90;;;;;;5012612;28;20530;-83
2022/03/29 02:44:54;;;;;;;11.10;8.82;;;3.30;99.90;;;;;;5012400;28;20057;-84
2022/03/29 02:47:21;;;;;;;13.25;8.55;;;3.30;99.90;;;;;;5012668;28;20609;-84
2022/03/29 02:49:48;;;;;;;18.50;9.65;;;3.30;99.90;;;;;;5011484;28;20056;-84
2022/03/29 02:52:15;;;;;;;13.00;8.90;;;3.30;99.90;;;;;;5011480;28;20096;-84
2022/03/29 02:54:41;;;;;;;13.65;8.20;;;3.30;99.90;;;;;;5011750;28;20042;-84
2022/03/29 02:57:10;;;;;;;14.88;8.75;;;3.20;99.90;;;;;;5011186;28;20120;-84
2022/03/29 02:59:37;;;;;;;14.50;8.95;;;3.20;99.90;;;;;;5012744;28;20125;-84
2022/03/29 03:02:04;;;;;;;23.05;8.85;;;3.20;99.90;;;;;;5011413;28;20053;-84
2022/03/29 03:04:32;;;;;;;12.20;8.68;;;3.30;99.90;;;;;;5012426;28;20046;-85
2022/03/29 03:06:59;;;;;;;13.25;8.05;;;3.20;99.90;;;;;;5012313;28;20108;-84
2022/03/29 03:09:26;;;;;;;10.05;7.63;;;3.20;99.90;;;;;;5012338;28;20063;-84
2022/03/29 03:11:53;;;;;;;12.45;8.65;;;3.20;99.90;;;;;;5011260;28;20659;-85
2022/03/29 03:14:20;;;;;;;14.10;8.73;;;3.00;99.90;;;;;;5011335;28;20129;-84
2022/03/29 03:16:46;;;;;;;14.75;9.30;;;3.00;99.90;;;;;;5012576;28;20149;-84
2022/03/29 03:19:33;;;;;;;11.25;9.38;;;2.90;99.90;;;;;;5012611;28;20061;-85
2022/03/29 03:22:00;;;;;;;14.18;9.40;;;2.90;99.90;;;;;;5012165;28;20081;-85
2022/03/29 03:24:27;;;;;;;14.38;9.85;;;2.90;99.90;;;;;;5013225;28;20049;-84
2022/03/29 03:26:54;;;;;;;17.70;10.55;;;2.90;99.90;;;;;;5016276;28;20081;-84
2022/03/29 03:29:21;;;;;;;11.75;9.63;;;3.10;99.90;;;;;;5016175;28;20076;-85
2022/03/29 03:31:48;;;;;;;15.00;9.88;;;3.10;99.90;;;;;;5014937;28;20056;-85
2022/03/29 03:34:15;;;;;;;15.70;10.18;;;3.00;99.90;;;;;;5016188;28;20056;-84
2022/03/29 03:36:42;;;;;;;17.40;9.98;;;2.90;99.90;;;;;;5014545;28;20050;-85
2022/03/29 03:39:09;;;;;;;12.05;9.52;;;2.90;99.90;;;;;;5015014;28;20132;-85
2022/03/29 03:41:37;;;;;;;18.05;10.00;;;2.90;99.90;;;;;;5015767;28;20092;-85
2022/03/29 03:44:04;;;;;;;18.15;10.80;;;2.90;99.90;;;;;;5014602;28;20132;-84
2022/03/29 03:46:31;;;;;;;16.35;10.43;;;2.80;99.90;;;;;;5014254;28;20054;-84
2022/03/29 03:48:58;;;;;;;15.93;9.63;;;2.70;99.90;;;;;;5014470;28;20049;-85
2022/03/29 03:51:25;;;;;;;17.02;9.27;;;2.70;99.90;;;;;;5014140;28;20411;-85
2022/03/29 03:53:51;;;;;;;19.13;10.65;;;2.80;99.90;;;;;;5015850;28;20073;-85
2022/03/29 03:56:18;;;;;;;18.13;9.68;;;2.90;99.90;;;;;;5014495;28;20145;-85
2022/03/29 03:58:45;;;;;;;19.83;10.00;;;2.90;99.90;;;;;;5014686;28;20129;-84
2022/03/29 04:01:12;;;;;;;20.13;9.85;;;2.80;99.90;;;;;;5015358;28;20062;-83
2022/03/29 04:03:39;;;;;;;18.20;10.82;;;2.80;99.90;;;;;;5015552;28;20085;-85
2022/03/29 04:06:06;;;;;;;15.40;11.05;;;2.80;99.90;;;;;;5014154;28;20105;-84
2022/03/29 04:08:32;;;;;;;18.83;11.27;;;2.80;99.90;;;;;;5014404;28;20165;-85
2022/03/29 04:10:59;;;;;;;19.40;11.73;;;2.80;99.90;;;;;;5013918;28;20053;-85
2022/03/29 04:13:26;;;;;;;19.60;12.50;;;2.80;99.90;;;;;;5015279;28;20053;-85
2022/03/29 04:15:53;;;;;;;22.55;11.70;;;2.90;99.90;;;;;;5014399;28;20517;-84
2022/03/29 04:18:20;;;;;;;13.52;11.15;;;2.80;99.90;;;;;;5013957;28;20053;-84
2022/03/29 04:20:47;;;;;;;16.95;11.70;;;2.70;99.90;;;;;;5013984;28;20089;-84
2022/03/29 04:23:14;;;;;;;19.60;12.85;;;2.70;99.90;;;;;;5014217;28;20049;-85
2022/03/29 04:25:40;;;;;;;20.25;11.52;;;2.70;99.90;;;;;;5014214;28;20053;-85
2022/03/29 04:28:07;;;;;;;22.58;11.98;;;2.70;99.90;;;;;;5014120;28;20133;-84
2022/03/29 04:30:34;;;;;;;16.08;10.98;;;2.70;99.90;;;;;;5013313;28;20046;-84
2022/03/29 04:33:01;;;;;;;16.70;11.18;;;2.60;99.90;;;;;;5014569;28;20359;-84
2022/03/29 04:35:28;;;;;;;19.27;10.63;;;2.60;99.90;;;;;;5012795;28;20487;-84
2022/03/29 04:37:54;;;;;;;17.20;11.63;;;2.60;99.90;;;;;;5013704;28;20088;-84
2022/03/29 04:40:21;;;;;;;20.38;11.07;;;2.70;99.90;;;;;;5014660;28;20133;-84
2022/03/29 04:42:50;;;;;;;17.60;10.23;;;2.70;99.90;;;;;;5013324;28;20140;-84
2022/03/29 04:45:18;;;;;;;16.85;10.43;;;2.60;99.90;;;;;;5012850;28;20073;-84
2022/03/29 04:47:46;;;;;;;17.77;11.10;;;2.60;99.90;;;;;;5013664;28;20453;-85
2022/03/29 04:50:14;;;;;;;15.15;9.68;;;2.50;99.90;;;;;;5014423;28;20525;-84
2022/03/29 04:52:44;;;;;;;21.10;9.82;;;2.50;99.90;;;;;;5014288;28;20141;-85
2022/03/29 04:55:12;;;;;;;22.63;11.30;;;2.50;99.90;;;;;;5014485;28;20064;-85
2022/03/29 04:57:43;;;;;;;18.75;11.95;;;2.50;99.90;;;;;;5014274;28;20049;-84
2022/03/29 05:00:12;;;;;;;28.02;12.48;;;2.40;99.90;;;;;;5013444;28;20133;-84
2022/03/29 05:02:40;;;;;;;21.67;12.88;;;2.50;99.90;;;;;;5014388;28;20528;-85
2022/03/29 05:05:07;;;;;;;24.33;13.77;;;2.40;99.90;;;;;;5013369;28;20461;-84
2022/03/29 05:07:34;;;;;;;28.05;14.38;;;2.50;99.90;;;;;;5013143;28;20137;-85
2022/03/29 05:10:02;;;;;;;22.35;13.13;;;2.50;99.90;;;;;;5013386;28;20447;-85
2022/03/29 05:12:29;;;;;;;23.73;14.07;;;2.50;99.90;;;;;;5013312;28;20081;-85
2022/03/29 05:14:59;;;;;;;24.67;14.90;;;2.50;99.90;;;;;;5021011;28;20104;-84
2022/03/29 05:17:25;;;;;;;28.80;15.43;;;2.60;99.90;;;;;;5016774;28;20049;-85
2022/03/29 05:19:52;;;;;;;30.23;17.65;;;2.70;99.90;;;;;;5013022;28;20137;-84
2022/03/29 05:22:19;;;;;;;23.02;15.32;;;2.80;99.90;;;;;;5013080;28;20433;-84
2022/03/29 05:24:46;;;;;;;24.60;14.77;;;2.80;99.90;;;;;;5013861;28;20060;-84
2022/03/29 05:27:12;;;;;;;21.52;14.43;;;2.80;99.90;;;;;;5010921;28;20181;-84
2022/03/29 05:29:39;;;;;;;20.67;14.00;;;2.80;99.90;;;;;;5012430;28;20498;-84
2022/03/29 05:32:06;;;;;;;48.50;25.55;;;2.80;99.90;;;;;;5013389;28;20574;-84
2022/03/29 05:34:33;;;;;;;23.45;15.50;;;3.00;99.90;;;;;;5011120;28;20052;-84
2022/03/29 05:37:00;;;;;;;26.42;16.77;;;2.90;99.90;;;;;;5010894;28;20046;-84
2022/03/29 05:39:27;;;;;;;24.98;15.18;;;3.00;99.90;;;;;;5010337;28;20046;-84
2022/03/29 05:41:54;;;;;;;26.77;14.48;;;3.00;99.90;;;;;;5010508;28;20132;-85
2022/03/29 05:44:20;;;;;;;17.88;11.07;;;3.20;99.90;;;;;;5010226;28;20042;-84
2022/03/29 05:49:33;;;;;;;17.77;12.35;;;3.30;99.90;;;;;;5013578;28;20049;-84
2022/03/29 05:51:59;;;;;;;48.55;28.95;;;3.50;99.90;;;;;;5012088;28;20096;-84
2022/03/29 05:54:26;;;;;;;35.42;26.15;;;3.60;99.90;;;;;;5013341;28;20144;-85
2022/03/29 05:56:54;;;;;;;27.63;22.85;;;3.70;99.90;;;;;;5012337;28;20482;-85
2022/03/29 05:59:20;;;;;;;24.00;13.90;;;3.90;99.90;;;;;;5012204;28;20068;-84
2022/03/29 06:01:48;;;;;;;15.52;10.25;;;4.00;99.90;;;;;;5013551;28;20053;-85
2022/03/29 06:04:16;;;;;;;16.25;10.05;;;4.10;99.90;;;;;;5012590;28;20046;-85
2022/03/29 06:06:45;;;;;;;16.15;9.40;;;4.20;99.90;;;;;;5012302;28;20408;-85
2022/03/29 06:09:11;;;;;;;19.95;11.32;;;4.30;99.90;;;;;;5012296;28;20068;-85
2022/03/29 06:11:38;;;;;;;22.48;10.63;;;4.40;99.90;;;;;;5012109;28;20137;-85
2022/03/29 06:14:05;;;;;;;14.98;9.77;;;4.50;99.90;;;;;;5013477;28;20414;-85
2022/03/29 06:16:33;;;;;;;16.23;9.75;;;4.70;99.90;;;;;;5013345;28;20060;-85
2022/03/29 06:19:00;;;;;;;25.27;10.50;;;4.80;99.90;;;;;;5013038;28;20054;-85
2022/03/29 06:21:27;;;;;;;24.55;12.05;;;5.00;99.90;;;;;;5012701;28;20095;-85
2022/03/29 06:23:54;;;;;;;25.35;10.70;;;5.30;99.90;;;;;;5013226;28;20409;-85
2022/03/29 06:26:21;;;;;;;42.35;11.23;;;5.60;99.90;;;;;;5011999;28;20502;-85
2022/03/29 06:28:47;;;;;;;28.27;10.40;;;5.80;99.90;;;;;;5012306;28;20050;-84
2022/03/29 06:31:14;;;;;;;27.02;11.35;;;6.00;99.90;;;;;;5011592;28;20050;-84
2022/03/29 06:33:41;;;;;;;23.27;10.90;;;6.10;99.90;;;;;;5012791;28;20049;-84
2022/03/29 06:36:08;;;;;;;30.05;12.35;;;6.10;99.90;;;;;;5012958;28;20501;-84
2022/03/29 06:38:34;;;;;;;38.92;15.02;;;6.20;99.90;;;;;;5011844;28;20132;-84
2022/03/29 06:41:01;;;;;;;35.67;13.18;;;6.60;99.90;;;;;;5011399;28;20136;-84
2022/03/29 06:43:28;;;;;;;43.25;14.77;;;7.00;99.90;;;;;;5012544;28;20058;-84
2022/03/29 06:45:55;;;;;;;54.25;15.63;;;7.30;99.90;;;;;;5012460;28;20062;-84
2022/03/29 06:48:23;;;;;;;54.03;16.35;;;7.50;99.90;;;;;;5011182;28;20060;-84
2022/03/29 06:50:50;;;;;;;46.00;13.63;;;7.90;99.90;;;;;;5012323;28;20132;-84
2022/03/29 06:53:16;;;;;;;32.83;14.07;;;8.40;99.90;;;;;;5011116;28;20414;-83
2022/03/29 06:55:43;;;;;;;40.28;14.50;;;8.60;99.90;;;;;;5011515;28;20074;-84
2022/03/29 06:58:10;;;;;;;42.47;16.40;;;8.70;99.90;;;;;;5011737;28;20081;-84
2022/03/29 07:00:41;;;;;;;47.45;19.77;;;8.60;99.90;;;;;;5015365;28;20057;-84
2022/03/29 07:03:08;;;;;;;50.83;20.27;;;8.30;99.90;;;;;;5016063;28;20042;-85
2022/03/29 07:05:38;;;;;;;27.25;12.75;;;8.00;99.90;;;;;;5015241;28;20054;-84
2022/03/29 07:08:06;;;;;;;33.60;12.20;;;7.90;99.90;;;;;;5015401;28;20081;-84
2022/03/29 07:13:18;;;;;;;28.30;11.40;;;8.20;99.90;;;;;;5015792;28;20050;-85
2022/03/29 07:15:48;;;;;;;36.78;11.70;;;8.40;99.90;;;;;;5016392;28;20100;-84
2022/03/29 07:18:15;;;;;;;32.53;11.00;;;8.60;99.90;;;;;;5015178;28;20141;-85
2022/03/29 07:20:42;;;;;;;26.08;10.65;;;8.60;99.90;;;;;;5015203;28;20049;-85
2022/03/29 07:23:09;;;;;;;22.30;10.88;;;8.70;99.90;;;;;;5016339;28;20066;-85
2022/03/29 07:25:37;;;;;;;21.58;10.30;;;8.90;99.90;;;;;;5015149;28;20049;-85
2022/03/29 07:28:04;;;;;;;22.70;11.32;;;9.20;99.90;;;;;;5014808;28;20504;-85
2022/03/29 07:30:33;;;;;;;15.85;10.50;;;9.60;99.90;;;;;;5014570;28;20064;-85
2022/03/29 07:33:00;;;;;;;22.15;11.10;;;9.70;99.90;;;;;;5016267;28;20060;-85
2022/03/29 07:35:29;;;;;;;19.75;10.38;;;10.00;99.90;;;;;;5014746;28;20050;-85
2022/03/29 07:37:56;;;;;;;24.67;11.60;;;10.10;99.90;;;;;;5016111;28;20081;-85
2022/03/29 07:40:25;;;;;;;25.85;11.40;;;10.70;99.90;;;;;;5014372;28;20046;-85
2022/03/29 07:42:53;;;;;;;20.80;11.30;;;11.00;99.90;;;;;;5015020;28;20050;-85
2022/03/29 07:45:20;;;;;;;20.83;10.10;;;11.60;99.90;;;;;;5015028;28;20046;-85
2022/03/29 07:47:55;;;;;;;24.33;12.20;;;11.90;99.90;;;;;;5015926;28;20045;-85
2022/03/29 07:50:42;;;;;;;23.80;11.73;;;12.00;99.90;;;;;;5015693;28;20054;-85
2022/03/29 07:53:09;;;;;;;23.88;12.43;;;12.30;99.90;;;;;;5015674;28;20518;-85
2022/03/29 07:55:39;;;;;;;23.35;13.00;;;12.70;99.90;;;;;;5015780;28;20050;-85
2022/03/29 07:58:10;;;;;;;22.52;12.30;;;13.00;99.90;;;;;;5014594;28;20136;-85
2022/03/29 08:00:38;;;;;;;28.10;14.02;;;13.00;99.90;;;;;;5014513;28;20134;-85
2022/03/29 08:03:06;;;;;;;24.52;14.18;;;12.90;99.90;;;;;;5015674;28;20050;-85
2022/03/29 08:05:34;;;;;;;27.75;14.95;;;13.00;99.90;;;;;;5015316;28;20143;-85
2022/03/29 08:08:03;;;;;;;23.08;15.30;;;13.20;99.90;;;;;;5015816;28;20560;-85
2022/03/29 08:10:31;;;;;;;24.83;16.25;;;14.20;99.90;;;;;;5012969;28;20081;-85
2022/03/29 08:13:03;;;;;;;24.83;15.30;;;14.60;99.90;;;;;;5013975;28;20049;-85
2022/03/29 08:15:30;;;;;;;34.63;16.15;;;14.70;99.90;;;;;;5014208;28;20088;-85
2022/03/29 08:18:04;;;;;;;27.85;18.30;;;15.60;99.70;;;;;;5015459;28;20569;-85
2022/03/29 08:20:30;;;;;;;27.92;17.13;;;15.50;96.60;;;;;;5014046;28;20481;-85
2022/03/29 08:23:01;;;;;;;30.40;17.38;;;16.10;96.20;;;;;;5014109;28;20046;-86
2022/03/29 08:25:30;;;;;;;27.73;16.40;;;16.60;95.10;;;;;;5014254;28;20085;-86
2022/03/29 08:27:58;;;;;;;24.02;16.15;;;16.80;94.10;;;;;;5015306;28;20147;-85
2022/03/29 08:30:26;;;;;;;22.92;14.95;;;17.40;91.90;;;;;;5013654;28;20132;-85
2022/03/29 08:32:54;;;;;;;27.95;16.02;;;18.10;88.60;;;;;;5015465;28;20076;-85
2022/03/29 08:35:27;;;;;;;26.70;16.17;;;17.50;89.20;;;;;;5014923;28;20076;-86
2022/03/29 08:37:54;;;;;;;24.83;16.00;;;16.60;90.70;;;;;;5015107;28;20137;-85
2022/03/29 08:40:44;;;;;;;25.45;16.63;;;16.90;90.50;;;;;;5013599;28;20049;-86
2022/03/29 08:43:12;;;;;;;31.10;17.38;;;17.10;89.80;;;;;;5014741;28;20076;-86
2022/03/29 08:45:43;;;;;;;25.67;16.13;;;16.40;90.70;;;;;;5014835;28;20550;-86
2022/03/29 08:48:11;;;;;;;31.88;15.90;;;16.40;91.40;;;;;;5014670;28;20545;-86
2022/03/29 08:50:40;;;;;;;26.00;16.85;;;17.40;89.90;;;;;;5013628;28;20053;-85
2022/03/29 08:53:07;;;;;;;27.90;15.82;;;17.60;88.40;;;;;;5013399;28;20076;-86
2022/03/29 08:55:35;;;;;;;27.67;15.43;;;17.90;86.20;;;;;;5013544;28;20046;-86
2022/03/29 08:58:02;;;;;;;37.95;17.52;;;18.40;82.50;;;;;;5015012;28;20172;-86
2022/03/29 09:00:29;;;;;;;27.00;16.67;;;17.50;83.80;;;;;;5014531;28;20077;-85
2022/03/29 09:02:56;;;;;;;30.17;17.92;;;16.10;88.00;;;;;;5014629;28;20104;-85
2022/03/29 09:05:27;;;;;;;27.08;18.58;;;14.70;91.70;;;;;;5013443;28;20050;-86
2022/03/29 09:08:08;;;;;;;32.20;19.13;;;14.20;95.00;;;;;;5013152;28;20568;-85
2022/03/29 09:10:43;;;;;;;27.45;17.27;;;13.60;98.10;;;;;;5014351;28;20046;-86
2022/03/29 09:13:24;;;;;;;27.50;18.25;;;15.50;95.20;;;;;;5012656;28;20042;-86
2022/03/29 09:15:53;;;;;;;29.20;17.80;;;15.70;92.60;;;;;;5013438;28;20081;-85
2022/03/29 09:18:20;;;;;;;27.90;16.60;;;15.90;92.20;;;;;;5013190;28;20136;-85
2022/03/29 09:21:07;;;;;;;26.52;16.60;;;14.80;92.50;;;;;;5013032;28;20128;-86
2022/03/29 09:23:34;;;;;;;27.83;17.23;;;14.50;92.90;;;;;;5013279;28;20096;-85
2022/03/29 09:26:02;;;;;;;35.67;18.35;;;14.40;94.00;;;;;;5013059;28;20056;-85
2022/03/29 09:28:38;;;;;;;33.22;19.52;;;14.20;95.60;;;;;;5012700;28;20132;-85
2022/03/29 09:31:20;;;;;;;27.77;16.67;;;15.20;93.70;;;;;;5012943;28;20466;-85
2022/03/29 09:33:47;;;;;;;29.98;16.65;;;15.80;91.90;;;;;;5012784;28;20045;-86
2022/03/29 09:36:20;;;;;;;26.13;14.77;;;16.00;91.10;;;;;;5013056;28;20061;-86
2022/03/29 09:38:51;;;;;;;24.67;15.95;;;16.00;89.90;;;;;;5013889;28;20100;-86
2022/03/29 09:41:21;;;;;;;24.50;15.73;;;15.80;89.80;;;;;;5012431;28;20108;-86
2022/03/29 09:43:59;;;;;;;21.50;14.75;;;15.60;90.10;;;;;;5012659;28;20112;-86
2022/03/29 09:46:26;;;;;;;24.70;14.23;;;16.10;88.90;;;;;;5012538;28;20089;-86
2022/03/29 09:49:01;;;;;;;24.77;16.45;;;15.70;86.60;;;;;;5013801;28;20111;-85
2022/03/29 09:51:28;;;;;;;29.23;14.75;;;16.30;88.10;;;;;;5012291;28;20146;-86
2022/03/29 09:53:58;;;;;;;23.25;13.05;;;16.90;85.50;;;;;;5012485;28;20045;-86
2022/03/29 09:56:29;;;;;;;21.30;14.50;;;17.80;83.40;;;;;;5012575;28;20169;-86
2022/03/29 09:59:15;;;;;;;22.30;13.43;;;17.70;79.90;;;;;;5012611;28;20049;-86
2022/03/29 10:01:48;;;;;;;16.98;12.13;;;17.90;78.40;;;;;;5012206;28;20388;-86
2022/03/29 10:04:16;;;;;;;15.07;12.17;;;18.50;77.40;;;;;;5013434;28;20490;-86
2022/03/29 10:06:44;;;;;;;21.92;13.77;;;19.40;72.80;;;;;;5013616;28;20380;-86
2022/03/29 10:09:26;;;;;;;23.35;14.40;;;18.90;71.60;;;;;;5012328;28;20049;-86
2022/03/29 10:12:03;;;;;;;19.92;12.35;;;18.40;71.20;;;;;;5012418;28;20081;-86
2022/03/29 10:14:44;;;;;;;21.70;12.95;;;18.40;71.90;;;;;;5013387;28;20058;-87
2022/03/29 10:17:15;;;;;;;15.75;11.32;;;18.00;72.00;;;;;;5012353;28;20473;-86
2022/03/29 10:19:44;;;;;;;15.45;10.98;;;17.70;72.70;;;;;;5013389;28;20115;-86
2022/03/29 10:22:13;;;;;;;19.60;13.43;;;17.70;71.90;;;;;;5012005;28;20064;-86
2022/03/29 10:24:40;;;;;;;18.42;10.50;;;17.70;72.00;;;;;;5013379;28;20046;-86
2022/03/29 10:27:08;;;;;;;17.05;11.90;;;17.80;71.70;;;;;;5012263;28;20413;-86
2022/03/29 10:29:40;;;;;;;15.80;9.18;;;17.90;70.80;;;;;;5011216;28;20053;-85
2022/03/29 10:32:07;;;;;;;16.02;9.68;;;18.30;71.70;;;;;;5011728;28;20485;-86
2022/03/29 10:34:37;;;;;;;16.08;9.07;;;18.80;68.80;;;;;;5011206;28;20046;-85
2022/03/29 10:37:10;;;;;;;12.65;8.60;;;18.50;67.20;;;;;;5013366;28;20050;-86
2022/03/29 10:39:55;;;;;;;13.25;7.88;;;18.20;68.30;;;;;;5011890;28;20338;-86
2022/03/29 10:42:38;;;;;;;9.70;7.53;;;18.50;68.10;;;;;;5011889;28;20057;-86
2022/03/29 10:45:23;;;;;;;13.00;7.82;;;19.10;68.10;;;;;;5011915;28;20478;-87
2022/03/29 10:48:11;;;;;;;23.10;9.10;;;19.80;65.00;;;;;;5011728;28;20053;-84
2022/03/29 10:50:55;;;;;;;25.67;18.15;;;21.00;63.90;;;;;;5011948;28;20092;-86
2022/03/29 10:53:27;;;;;;;12.52;8.90;;;20.80;61.90;;;;;;5011883;28;20486;-84
2022/03/29 10:56:13;;;;;;;106.78;69.90;;;21.50;59.50;;;;;;5012140;28;20042;-84
2022/03/29 10:59:02;;;;;;;30.70;20.35;;;20.70;59.80;;;;;;5011708;28;20057;-84
2022/03/29 11:01:33;;;;;;;64.50;40.55;;;19.80;63.20;;;;;;5012092;28;20054;-86
2022/03/29 11:04:07;;;;;;;14.20;10.32;;;18.80;63.80;;;;;;5012390;28;20049;-87
2022/03/29 11:06:35;;;;;;;51.05;31.67;;;18.90;63.60;;;;;;5011837;28;20045;-86
2022/03/29 11:09:15;;;;;;;53.03;28.42;;;19.00;62.40;;;;;;5012162;28;20487;-87
2022/03/29 11:11:47;;;;;;;28.33;19.65;;;19.60;63.20;;;;;;5013145;28;20045;-87
2022/03/29 11:14:34;;;;;;;35.78;29.20;;;20.10;64.90;;;;;;5012175;28;20077;-85
2022/03/29 11:17:01;;;;;;;22.42;14.88;;;20.30;62.50;;;;;;5012982;28;20137;-85
2022/03/29 11:19:48;;;;;;;24.85;15.27;;;20.40;60.80;;;;;;5011952;28;20173;-83
2022/03/29 11:22:22;;;;;;;34.90;19.40;;;21.50;57.90;;;;;;5011776;28;20077;-85
2022/03/29 11:24:50;;;;;;;24.27;13.02;;;20.50;59.80;;;;;;5012022;28;20112;-87
2022/03/29 11:27:32;;;;;;;13.98;9.18;;;20.20;60.30;;;;;;5012944;28;20042;-87
2022/03/29 11:30:02;;;;;;;17.98;10.45;;;19.60;61.00;;;;;;5013851;28;20054;-87
2022/03/29 11:32:30;;;;;;;12.98;8.30;;;19.30;61.00;;;;;;5012729;28;20053;-86
2022/03/29 11:34:58;;;;;;;14.45;9.90;;;19.30;59.90;;;;;;5012098;28;20052;-87
2022/03/29 11:37:31;;;;;;;13.73;9.43;;;18.50;62.40;;;;;;5012093;28;20471;-87
2022/03/29 11:39:59;;;;;;;12.82;8.07;;;18.70;63.40;;;;;;5011685;28;20133;-85
2022/03/29 11:42:55;;;;;;;15.55;10.60;;;19.20;61.70;;;;;;5011589;28;20072;-85
2022/03/29 11:45:24;;;;;;;14.43;9.45;;;19.60;61.20;;;;;;5013806;28;20486;-85
2022/03/29 11:47:53;;;;;;;12.75;8.77;;;19.50;61.40;;;;;;5015328;28;20463;-87
2022/03/29 11:50:32;;;;;;;15.27;9.65;;;19.80;63.00;;;;;;5014470;28;20049;-85
2022/03/29 11:52:59;;;;;;;21.35;11.40;;;20.70;61.20;;;;;;5014992;28;20049;-86
2022/03/29 11:55:30;;;;;;;18.65;12.23;;;19.70;62.60;;;;;;5016232;28;20124;-86
2022/03/29 11:57:57;;;;;;;37.45;11.77;;;19.10;64.10;;;;;;5016226;28;20108;-85
2022/03/29 12:00:27;;;;;;;18.40;11.18;;;19.60;63.40;;;;;;5014959;28;20108;-86
2022/03/29 12:02:54;;;;;;;19.40;10.82;;;19.90;62.60;;;;;;5015181;28;20057;-87
2022/03/29 12:05:27;;;;;;;35.17;10.93;;;20.10;62.00;;;;;;5015320;28;20056;-87
2022/03/29 12:08:05;;;;;;;21.30;10.45;;;20.40;61.60;;;;;;5016583;28;20064;-86
2022/03/29 12:10:34;;;;;;;21.88;12.32;;;21.20;59.50;;;;;;5014836;28;20049;-87
2022/03/29 12:13:03;;;;;;;16.63;11.32;;;20.00;60.90;;;;;;5015328;28;20053;-86
2022/03/29 12:15:30;;;;;;;24.40;13.20;;;19.90;62.50;;;;;;5014876;28;20490;-87
2022/03/29 12:20:47;;;;;;;21.85;13.30;;;19.40;62.70;;;;;;5016355;28;20057;-87
2022/03/29 12:23:22;;;;;;;16.05;10.68;;;19.10;63.20;;;;;;5014863;28;20267;-87
2022/03/29 12:25:49;;;;;;;29.33;14.93;;;19.70;62.30;;;;;;5014941;28;20547;-86
2022/03/29 12:28:19;;;;;;;15.77;11.38;;;19.30;63.50;;;;;;5014972;28;20133;-87
2022/03/29 12:30:46;;;;;;;32.00;16.25;;;19.30;64.00;;;;;;5014710;28;20077;-86
2022/03/29 12:33:15;;;;;;;20.10;11.60;;;20.10;62.00;;;;;;5015775;28;20406;-85
2022/03/29 12:35:42;;;;;;;14.43;10.73;;;20.20;61.60;;;;;;5014649;28;20133;-85
2022/03/29 12:38:12;;;;;;;27.73;13.60;;;20.70;62.80;;;;;;5015294;28;20073;-85
2022/03/29 12:40:52;;;;;;;26.63;12.20;;;21.40;61.60;;;;;;5014686;28;20077;-84
2022/03/29 12:43:25;;;;;;;16.67;11.45;;;21.20;60.50;;;;;;5014473;28;20057;-85
2022/03/29 12:45:52;;;;;;;17.08;11.57;;;20.80;60.30;;;;;;5015784;28;20056;-85
2022/03/29 12:48:22;;;;;;;28.42;14.45;;;20.00;61.10;;;;;;5015319;28;20104;-85
2022/03/29 12:50:49;;;;;;;21.90;12.43;;;19.60;62.30;;;;;;5014209;28;20565;-85
2022/03/29 12:53:15;;;;;;;19.58;12.02;;;19.10;62.20;;;;;;5014348;28;20100;-85
2022/03/29 12:55:56;;;;;;;24.00;12.38;;;18.30;63.80;;;;;;5015226;28;20049;-86